Time;durP1;ratioP1;P1;durP2;ratioP2;P2;SDS_P1;SDS_P2;PMS_P1;PMS_P2;Temp;Humidity;BMP_temperature;BMP_pressure;BME280_temperature;BME280_humidity;BME280_pressure;Samples;Min_cycle;Max_cycle;Signal;HPM_P1;HPM_P2
2021/07/10 00:00:55;;;;;;;;;;;16.90;92.90;;;;;;5070976;28;20299;-60
2021/07/10 00:03:21;;;;;;;;;;;16.90;92.90;;;;;;5070193;28;20070;-60
2021/07/10 00:05:46;;;;;;;;;;;16.80;92.80;;;;;;5071348;28;19923;-61
2021/07/10 00:08:12;;;;;;;;;;;16.80;92.80;;;;;;5070805;28;20017;-60
2021/07/10 00:10:38;;;;;;;;;;;16.80;92.80;;;;;;5070182;28;19969;-60
2021/07/10 00:13:03;;;;;;;;;;;16.80;92.90;;;;;;5071297;28;19917;-60
2021/07/10 00:15:29;;;;;;;;;;;16.80;92.90;;;;;;5071255;28;19913;-60
2021/07/10 00:17:55;;;;;;;;;;;16.80;92.90;;;;;;5070902;28;20348;-60
2021/07/10 00:20:21;;;;;;;;;;;16.70;92.70;;;;;;5069645;28;20288;-60
2021/07/10 00:22:47;;;;;;;;;;;16.70;92.80;;;;;;5071447;28;19924;-60
2021/07/10 00:25:15;;;;;;;;;;;16.60;92.90;;;;;;5071279;28;19917;-59
2021/07/10 00:27:41;;;;;;;;;;;16.60;93.00;;;;;;5070183;28;19917;-60
2021/07/10 00:30:08;;;;;;;;;;;16.60;93.00;;;;;;5073807;28;19916;-60
2021/07/10 00:32:34;;;;;;;;;;;16.60;92.90;;;;;;5073616;28;19916;-61
2021/07/10 00:35:00;;;;;;;;;;;16.70;92.90;;;;;;5075123;28;20430;-60
2021/07/10 00:37:25;;;;;;;;;;;16.60;92.90;;;;;;5074895;28;19917;-60
2021/07/10 00:39:51;;;;;;;;;;;16.50;93.00;;;;;;5073329;28;20416;-60
2021/07/10 00:42:19;;;;;;;;;;;16.60;93.10;;;;;;5075042;28;20303;-60
2021/07/10 00:44:45;;;;;;;;;;;16.60;93.00;;;;;;5075009;28;19917;-60
2021/07/10 00:47:11;;;;;;;;;;;16.60;93.10;;;;;;5074237;28;19923;-60
2021/07/10 00:49:37;;;;;;;;;;;16.60;93.00;;;;;;5073683;28;19920;-60
2021/07/10 00:52:02;;;;;;;;;;;16.50;93.00;;;;;;5073342;28;20307;-61
2021/07/10 00:54:28;;;;;;;;;;;16.50;92.90;;;;;;5074781;28;20423;-60
2021/07/10 00:56:58;;;;;;;;;;;16.50;92.90;;;;;;5074347;28;19921;-60
2021/07/10 00:59:27;;;;;;;;;;;16.50;92.90;;;;;;5072905;28;19920;-60
2021/07/10 01:01:53;;;;;;;;;;;16.40;92.90;;;;;;5074581;28;20449;-60
2021/07/10 01:04:18;;;;;;;;;;;16.40;93.00;;;;;;5074196;28;19916;-61
2021/07/10 01:06:44;;;;;;;;;;;16.30;93.00;;;;;;5056384;28;19924;-60
2021/07/10 01:09:10;;;;;;;;;;;16.30;93.00;;;;;;5073300;28;20344;-61
2021/07/10 01:11:35;;;;;;;;;;;16.30;93.00;;;;;;5074212;28;20304;-61
2021/07/10 01:14:01;;;;;;;;;;;16.30;93.10;;;;;;5074473;28;20372;-61
2021/07/10 01:16:27;;;;;;;;;;;16.30;93.00;;;;;;5074418;28;20376;-60
2021/07/10 01:18:53;;;;;;;;;;;16.20;93.00;;;;;;5073573;28;19921;-60
2021/07/10 01:21:18;;;;;;;;;;;16.20;93.00;;;;;;5073147;28;19924;-60
2021/07/10 01:23:44;;;;;;;;;;;16.20;93.00;;;;;;5073881;28;19916;-61
2021/07/10 01:26:09;;;;;;;;;;;16.10;93.00;;;;;;5074402;28;20049;-60
2021/07/10 01:28:35;;;;;;;;;;;16.10;93.30;;;;;;5072722;28;20283;-60
2021/07/10 01:31:00;;;;;;;;;;;16.20;93.20;;;;;;5073734;28;20303;-60
2021/07/10 01:33:26;;;;;;;;;;;16.10;93.10;;;;;;5072715;28;19923;-60
2021/07/10 01:35:51;;;;;;;;;;;16.10;93.10;;;;;;5074031;28;19967;-60
2021/07/10 01:38:17;;;;;;;;;;;16.10;93.20;;;;;;5071817;28;20372;-60
2021/07/10 01:40:43;;;;;;;;;;;16.10;93.20;;;;;;5071687;28;20003;-60
2021/07/10 01:43:09;;;;;;;;;;;16.10;93.10;;;;;;5073950;28;19916;-60
2021/07/10 01:45:35;;;;;;;;;;;16.10;93.10;;;;;;5085544;28;20295;-60
2021/07/10 01:48:01;;;;;;;;;;;16.10;93.10;;;;;;5092320;28;20265;-59
2021/07/10 01:50:28;;;;;;;;;;;16.10;93.10;;;;;;5093055;28;20024;-60
2021/07/10 01:52:53;;;;;;;;;;;16.10;93.10;;;;;;5073684;28;20273;-60
2021/07/10 01:55:19;;;;;;;;;;;16.00;93.10;;;;;;5073693;28;19923;-60
2021/07/10 01:57:49;;;;;;;;;;;16.00;93.10;;;;;;5072745;28;20380;-60
2021/07/10 02:00:16;;;;;;;;;;;16.00;93.10;;;;;;5072334;28;19969;-60
2021/07/10 02:02:42;;;;;;;;;;;16.00;93.20;;;;;;5073205;28;19916;-60
2021/07/10 02:05:08;;;;;;;;;;;16.00;93.20;;;;;;5073565;28;20003;-60
2021/07/10 02:07:34;;;;;;;;;;;15.90;93.10;;;;;;5073193;28;19917;-60
2021/07/10 02:09:59;;;;;;;;;;;15.90;93.00;;;;;;5073031;28;19916;-60
2021/07/10 02:12:25;;;;;;;;;;;15.90;93.10;;;;;;5073505;28;20395;-60
2021/07/10 02:14:50;;;;;;;;;;;15.90;93.20;;;;;;5073350;28;19917;-59
2021/07/10 02:17:16;;;;;;;;;;;15.80;93.20;;;;;;5072496;28;19966;-60
2021/07/10 02:19:42;;;;;;;;;;;15.80;93.20;;;;;;5073206;28;19978;-60
2021/07/10 02:22:07;;;;;;;;;;;15.80;93.20;;;;;;5072806;28;19913;-60
2021/07/10 02:24:33;;;;;;;;;;;15.80;93.20;;;;;;5073060;28;20418;-60
2021/07/10 02:26:59;;;;;;;;;;;15.80;93.30;;;;;;5072347;28;20016;-60
2021/07/10 02:29:25;;;;;;;;;;;15.80;93.40;;;;;;5072614;28;20337;-60
2021/07/10 02:31:50;;;;;;;;;;;15.80;93.40;;;;;;5072937;28;19916;-60
2021/07/10 02:34:16;;;;;;;;;;;15.80;93.40;;;;;;5071710;28;20373;-60
2021/07/10 02:36:42;;;;;;;;;;;15.80;93.30;;;;;;5054003;28;20288;-60
2021/07/10 02:39:08;;;;;;;;;;;15.80;93.30;;;;;;5072785;28;19920;-59
2021/07/10 02:41:33;;;;;;;;;;;15.80;93.40;;;;;;5072355;28;19916;-60
2021/07/10 02:43:59;;;;;;;;;;;15.80;93.30;;;;;;5072663;28;19916;-60
2021/07/10 02:46:24;;;;;;;;;;;15.80;93.30;;;;;;5072740;28;19917;-60
2021/07/10 02:48:50;;;;;;;;;;;15.80;93.20;;;;;;5070550;28;19920;-60
2021/07/10 02:51:16;;;;;;;;;;;15.80;93.20;;;;;;5072572;28;19916;-59
2021/07/10 02:53:41;;;;;;;;;;;15.70;93.20;;;;;;5072303;28;19923;-60
2021/07/10 02:56:07;;;;;;;;;;;15.70;93.20;;;;;;5070702;28;19917;-60
2021/07/10 02:58:33;;;;;;;;;;;15.70;93.30;;;;;;5071857;28;19974;-60
2021/07/10 03:00:58;;;;;;;;;;;15.70;93.30;;;;;;5072040;28;20478;-61
2021/07/10 03:03:24;;;;;;;;;;;15.70;93.30;;;;;;5072332;28;19916;-60
2021/07/10 03:05:50;;;;;;;;;;;15.60;93.30;;;;;;5072468;28;19962;-60
2021/07/10 03:08:15;;;;;;;;;;;15.60;93.30;;;;;;5071612;28;20004;-61
2021/07/10 03:10:42;;;;;;;;;;;15.60;93.40;;;;;;5070890;28;19917;-60
2021/07/10 03:13:07;;;;;;;;;;;15.50;93.40;;;;;;5072158;28;19917;-60
2021/07/10 03:15:33;;;;;;;;;;;15.50;93.50;;;;;;5072013;28;20264;-61
2021/07/10 03:17:59;;;;;;;;;;;15.60;93.60;;;;;;5070450;28;19959;-60
2021/07/10 03:20:26;;;;;;;;;;;15.60;93.50;;;;;;5070314;28;19927;-60
2021/07/10 03:22:52;;;;;;;;;;;15.60;93.50;;;;;;5072045;28;19918;-60
2021/07/10 03:25:18;;;;;;;;;;;15.70;93.60;;;;;;5072027;28;19923;-60
2021/07/10 03:27:44;;;;;;;;;;;15.70;93.70;;;;;;5071225;28;19917;-60
2021/07/10 03:30:10;;;;;;;;;;;15.70;93.60;;;;;;5072001;28;20357;-60
2021/07/10 03:32:38;;;;;;;;;;;15.70;93.50;;;;;;5071958;28;20429;-60
2021/07/10 03:35:04;;;;;;;;;;;15.80;93.50;;;;;;5070135;28;19920;-60
2021/07/10 03:37:30;;;;;;;;;;;15.80;93.50;;;;;;5071350;28;19955;-59
2021/07/10 03:39:55;;;;;;;;;;;15.80;93.60;;;;;;5069983;28;19955;-60
2021/07/10 03:42:21;;;;;;;;;;;15.80;93.50;;;;;;5070555;28;19948;-60
2021/07/10 03:44:47;;;;;;;;;;;15.80;93.50;;;;;;5071771;28;19920;-60
2021/07/10 03:47:12;;;;;;;;;;;15.90;93.50;;;;;;5069468;28;19925;-60
2021/07/10 03:49:38;;;;;;;;;;;15.90;93.50;;;;;;5071607;28;20391;-60
2021/07/10 03:52:04;;;;;;;;;;;15.90;93.50;;;;;;5071276;28;19930;-60
2021/07/10 03:54:29;;;;;;;;;;;15.90;93.60;;;;;;5071511;28;19928;-60
2021/07/10 03:56:55;;;;;;;;;;;16.00;93.40;;;;;;5071168;28;20367;-61
2021/07/10 03:59:20;;;;;;;;;;;15.90;93.30;;;;;;5069896;28;20502;-60
2021/07/10 04:01:46;;;;;;;;;;;15.90;93.40;;;;;;5071366;28;19923;-60
2021/07/10 04:04:12;;;;;;;;;;;15.90;93.50;;;;;;5069717;28;20225;-61
2021/07/10 04:06:38;;;;;;;;;;;15.90;93.40;;;;;;5071002;28;19912;-60
2021/07/10 04:09:04;;;;;;;;;;;16.00;93.50;;;;;;5071233;28;20380;-60
2021/07/10 04:11:29;;;;;;;;;;;15.90;93.30;;;;;;5071063;28;19985;-61
2021/07/10 04:13:55;;;;;;;;;;;16.00;93.40;;;;;;5071414;28;19917;-61
2021/07/10 04:16:20;;;;;;;;;;;16.00;93.30;;;;;;5071514;28;19920;-60
2021/07/10 04:18:46;;;;;;;;;;;16.00;93.30;;;;;;5070556;28;19921;-61
2021/07/10 04:21:11;;;;;;;;;;;16.00;93.20;;;;;;5071452;28;19917;-60
2021/07/10 04:23:37;;;;;;;;;;;16.00;93.20;;;;;;5070086;28;19916;-60
2021/07/10 04:26:03;;;;;;;;;;;16.00;93.20;;;;;;5071143;28;20319;-61
2021/07/10 04:28:28;;;;;;;;;;;16.00;93.40;;;;;;5071092;28;19916;-60
2021/07/10 04:30:54;;;;;;;;;;;15.90;93.30;;;;;;5071249;28;19920;-60
2021/07/10 04:33:19;;;;;;;;;;;16.00;93.30;;;;;;5070792;28;19952;-60
2021/07/10 04:35:45;;;;;;;;;;;16.00;93.20;;;;;;5071377;28;20402;-60
2021/07/10 04:38:10;;;;;;;;;;;16.00;93.20;;;;;;5070371;28;19917;-60
2021/07/10 04:40:36;;;;;;;;;;;16.00;93.20;;;;;;5071243;28;19930;-61
2021/07/10 04:43:02;;;;;;;;;;;16.00;93.30;;;;;;5071121;28;19925;-60
2021/07/10 04:45:28;;;;;;;;;;;16.10;93.30;;;;;;5070674;28;19917;-61
2021/07/10 04:47:53;;;;;;;;;;;16.10;93.20;;;;;;5070770;28;20375;-60
2021/07/10 04:50:21;;;;;;;;;;;16.10;93.00;;;;;;5071086;28;19923;-60
2021/07/10 04:52:48;;;;;;;;;;;16.10;93.10;;;;;;5070719;28;19951;-61
2021/07/10 04:55:14;;;;;;;;;;;16.10;93.00;;;;;;5071026;28;20380;-61
2021/07/10 04:57:40;;;;;;;;;;;16.10;93.00;;;;;;5081053;23;19924;-65
2021/07/10 05:00:07;;;;;;;;;;;16.20;93.00;;;;;;5052893;28;19920;-64
2021/07/10 05:02:32;;;;;;;;;;;16.20;93.00;;;;;;5070914;28;20283;-65
2021/07/10 05:04:58;;;;;;;;;;;16.20;92.90;;;;;;5052721;28;19924;-64
2021/07/10 05:07:24;;;;;;;;;;;16.20;92.80;;;;;;5071411;28;20402;-64
2021/07/10 05:09:49;;;;;;;;;;;16.20;92.90;;;;;;5052883;28;19923;-64
2021/07/10 05:12:16;;;;;;;;;;;16.20;92.90;;;;;;5070239;28;20269;-63
2021/07/10 05:14:42;;;;;;;;;;;16.20;92.80;;;;;;5061452;28;20402;-63
2021/07/10 05:17:07;;;;;;;;;;;16.20;92.90;;;;;;5064486;28;19920;-63
2021/07/10 05:19:33;;;;;;;;;;;16.30;93.00;;;;;;5094527;28;19921;-63
2021/07/10 05:21:58;;;;;;;;;;;16.40;93.10;;;;;;5094286;28;20029;-62
2021/07/10 05:24:24;;;;;;;;;;;16.50;93.00;;;;;;5094057;28;19922;-62
2021/07/10 05:26:49;;;;;;;;;;;16.60;92.90;;;;;;5076050;28;20011;-62
2021/07/10 05:29:16;;;;;;;;;;;16.60;92.80;;;;;;5094220;28;19962;-62
2021/07/10 05:31:41;;;;;;;;;;;16.80;92.70;;;;;;5075386;28;19923;-62
2021/07/10 05:34:07;;;;;;;;;;;16.80;92.90;;;;;;5094374;28;20288;-62
2021/07/10 05:36:33;;;;;;;;;;;16.90;92.50;;;;;;5093618;28;19916;-62
2021/07/10 05:38:58;;;;;;;;;;;16.90;92.40;;;;;;5093734;28;19928;-62
2021/07/10 05:41:24;;;;;;;;;;;17.00;92.30;;;;;;5094142;28;19916;-62
2021/07/10 05:43:50;;;;;;;;;;;16.90;92.20;;;;;;5093512;28;19915;-62
2021/07/10 05:46:15;;;;;;;;;;;16.90;92.20;;;;;;5094064;28;19916;-62
2021/07/10 05:48:41;;;;;;;;;;;17.00;92.20;;;;;;5075633;28;19916;-62
2021/07/10 05:51:07;;;;;;;;;;;17.00;92.10;;;;;;5075263;28;20290;-62
2021/07/10 05:53:32;;;;;;;;;;;17.00;92.20;;;;;;5094039;28;19916;-62
2021/07/10 05:55:58;;;;;;;;;;;17.10;92.10;;;;;;5093849;28;20341;-62
2021/07/10 05:58:24;;;;;;;;;;;17.10;92.20;;;;;;5092703;28;19920;-62
2021/07/10 06:00:49;;;;;;;;;;;17.20;92.00;;;;;;5093764;28;20010;-62
2021/07/10 06:03:15;;;;;;;;;;;17.30;92.00;;;;;;5075250;28;19948;-62
2021/07/10 06:05:40;;;;;;;;;;;17.40;91.80;;;;;;5093489;28;19916;-62
2021/07/10 06:08:06;;;;;;;;;;;17.50;92.10;;;;;;5093285;28;19920;-63
2021/07/10 06:10:31;;;;;;;;;;;17.60;92.10;;;;;;5075154;28;19923;-62
2021/07/10 06:12:57;;;;;;;;;;;17.90;92.30;;;;;;5093321;28;20281;-62
2021/07/10 06:15:22;;;;;;;;;;;18.20;92.20;;;;;;5093121;28;19916;-63
2021/07/10 06:17:48;;;;;;;;;;;18.30;91.40;;;;;;5093196;28;19916;-63
2021/07/10 06:20:15;;;;;;;;;;;18.50;91.60;;;;;;5075038;28;19920;-63
2021/07/10 06:22:42;;;;;;;;;;;18.70;91.50;;;;;;5092873;28;19917;-62
2021/07/10 06:25:08;;;;;;;;;;;18.90;91.10;;;;;;5075340;28;19974;-61
2021/07/10 06:27:34;;;;;;;;;;;19.10;90.80;;;;;;5092376;28;19916;-62
2021/07/10 06:29:59;;;;;;;;;;;19.20;90.70;;;;;;5092757;28;19923;-62
2021/07/10 06:32:25;;;;;;;;;;;19.30;90.60;;;;;;5092979;28;20273;-63
2021/07/10 06:34:51;;;;;;;;;;;19.50;90.60;;;;;;5074578;28;20375;-62
2021/07/10 06:37:16;;;;;;;;;;;19.80;90.90;;;;;;5092675;28;19916;-63
2021/07/10 06:39:42;;;;;;;;;;;20.10;90.60;;;;;;5075031;28;19927;-62
2021/07/10 06:42:07;;;;;;;;;;;20.30;88.90;;;;;;5074376;28;19916;-65
2021/07/10 06:44:33;;;;;;;;;;;20.30;87.80;;;;;;5092785;28;19935;-64
2021/07/10 06:47:14;;;;;;;;;;;20.10;87.20;;;;;;5069113;27;19927;-62
2021/07/10 06:49:39;;;;;;;;;;;19.90;85.90;;;;;;5063328;28;20007;-62
2021/07/10 06:52:06;;;;;;;;;;;19.60;85.80;;;;;;5048902;28;20008;-62
2021/07/10 06:54:32;;;;;;;;;;;19.50;86.30;;;;;;5041289;28;19917;-63
2021/07/10 06:56:57;;;;;;;;;;;19.30;86.10;;;;;;5047081;28;19967;-62
2021/07/10 06:59:23;;;;;;;;;;;19.20;85.80;;;;;;5040199;28;19967;-62
2021/07/10 07:01:50;;;;;;;;;;;19.10;85.70;;;;;;5048512;28;19929;-62
2021/07/10 07:04:17;;;;;;;;;;;18.90;85.80;;;;;;5048465;28;19928;-63
2021/07/10 07:06:42;;;;;;;;;;;18.90;85.70;;;;;;5047858;28;20029;-64
2021/07/10 07:09:08;;;;;;;;;;;18.70;85.80;;;;;;5047144;28;19996;-63
2021/07/10 07:11:34;;;;;;;;;;;18.60;85.50;;;;;;5047044;28;19924;-64
2021/07/10 07:13:59;;;;;;;;;;;18.50;86.00;;;;;;5046932;28;19924;-64
2021/07/10 07:16:25;;;;;;;;;;;18.40;86.30;;;;;;5047119;28;19925;-64
2021/07/10 07:18:50;;;;;;;;;;;18.40;86.30;;;;;;5048131;28;20369;-63
2021/07/10 07:21:16;;;;;;;;;;;18.50;86.50;;;;;;5048172;28;19928;-64
2021/07/10 07:23:42;;;;;;;;;;;18.50;86.60;;;;;;5048454;28;19924;-64
2021/07/10 07:26:08;;;;;;;;;;;18.50;86.30;;;;;;5046517;28;19924;-63
2021/07/10 07:28:33;;;;;;;;;;;18.50;85.90;;;;;;5046662;28;20019;-63
2021/07/10 07:30:59;;;;;;;;;;;18.50;85.90;;;;;;5048116;28;19917;-63
2021/07/10 07:33:27;;;;;;;;;;;18.40;86.10;;;;;;5047462;28;19917;-63
2021/07/10 07:35:53;;;;;;;;;;;18.40;86.00;;;;;;5046509;28;19917;-63
2021/07/10 07:38:20;;;;;;;;;;;18.40;86.20;;;;;;5047468;28;20008;-63
2021/07/10 07:40:46;;;;;;;;;;;18.40;86.10;;;;;;5046230;28;20404;-63
2021/07/10 07:43:11;;;;;;;;;;;18.40;86.20;;;;;;5047677;28;19917;-63
2021/07/10 07:45:37;;;;;;;;;;;18.50;86.20;;;;;;5054383;28;20444;-64
2021/07/10 07:48:02;;;;;;;;;;;18.60;86.30;;;;;;5072926;28;19927;-63
2021/07/10 07:50:28;;;;;;;;;;;18.70;86.60;;;;;;5087926;28;20399;-64
2021/07/10 07:52:54;;;;;;;;;;;18.80;86.80;;;;;;5086089;28;20002;-63
2021/07/10 07:55:19;;;;;;;;;;;19.00;86.30;;;;;;5087749;28;19940;-64
2021/07/10 07:57:45;;;;;;;;;;;19.20;86.00;;;;;;5076740;28;20133;-63
2021/07/10 08:00:13;;;;;;;;;;;19.30;85.80;;;;;;5072480;28;19994;-61
2021/07/10 08:02:39;;;;;;;;;;;19.40;85.10;;;;;;5072670;28;20407;-63
2021/07/10 08:05:05;;;;;;;;;;;19.50;84.70;;;;;;5071230;28;19923;-63
2021/07/10 08:07:31;;;;;;;;;;;19.40;84.00;;;;;;5067299;28;19920;-63
2021/07/10 08:09:56;;;;;;;;;;;19.30;83.30;;;;;;5071193;28;20058;-63
2021/07/10 08:12:22;;;;;;;;;;;19.20;83.20;;;;;;5069555;28;19923;-61
2021/07/10 08:14:47;;;;;;;;;;;19.10;83.50;;;;;;5073570;28;20030;-63
2021/07/10 08:17:13;;;;;;;;;;;19.10;83.80;;;;;;5072882;28;19921;-63
2021/07/10 08:19:38;;;;;;;;;;;19.10;83.10;;;;;;5073512;28;19920;-63
2021/07/10 08:22:04;;;;;;;;;;;19.10;83.40;;;;;;5072339;28;19923;-64
2021/07/10 08:24:30;;;;;;;;;;;19.10;83.30;;;;;;5073088;28;19916;-63
2021/07/10 08:26:55;;;;;;;;;;;19.10;83.30;;;;;;5071608;28;20300;-63
2021/07/10 08:29:21;;;;;;;;;;;19.10;83.10;;;;;;5073264;28;19917;-62
2021/07/10 08:31:47;;;;;;;;;;;19.10;82.90;;;;;;5071566;28;19912;-63
2021/07/10 08:34:13;;;;;;;;;;;19.10;82.80;;;;;;5071898;28;19916;-63
2021/07/10 08:36:39;;;;;;;;;;;19.20;83.20;;;;;;5071600;28;19912;-63
2021/07/10 08:39:07;;;;;;;;;;;19.30;83.40;;;;;;5071703;28;19924;-64
2021/07/10 08:41:33;;;;;;;;;;;19.50;83.50;;;;;;5072841;28;19923;-63
2021/07/10 08:43:58;;;;;;;;;;;19.70;83.10;;;;;;5070783;28;19912;-64
2021/07/10 08:46:24;;;;;;;;;;;19.80;82.80;;;;;;5071598;28;19920;-63
2021/07/10 08:48:50;;;;;;;;;;;20.00;82.70;;;;;;5071718;28;19973;-63
2021/07/10 08:51:15;;;;;;;;;;;20.00;81.10;;;;;;5070319;28;19921;-65
2021/07/10 08:53:41;;;;;;;;;;;20.00;81.00;;;;;;5072145;28;19919;-64
2021/07/10 08:56:07;;;;;;;;;;;20.00;80.40;;;;;;5071867;28;19962;-64
2021/07/10 08:58:34;;;;;;;;;;;20.10;80.30;;;;;;5071500;28;19917;-65
2021/07/10 09:01:00;;;;;;;;;;;20.00;80.30;;;;;;5071620;28;19962;-64
2021/07/10 09:03:25;;;;;;;;;;;20.30;81.40;;;;;;5071198;28;19924;-64
2021/07/10 09:05:53;;;;;;;;;;;21.00;82.40;;;;;;5072966;28;19970;-65
2021/07/10 09:08:29;;;;;;;;;;;21.40;79.30;;;;;;5054127;28;19923;-65
2021/07/10 09:10:56;;;;;;;;;;;21.60;78.10;;;;;;5071092;28;20300;-65
2021/07/10 09:13:29;;;;;;;;;;;21.70;76.90;;;;;;5072919;28;20372;-65
2021/07/10 09:15:59;;;;;;;;;;;21.70;76.10;;;;;;5071119;28;19924;-65
2021/07/10 09:18:34;;;;;;;;;;;21.80;76.80;;;;;;5071075;28;19943;-65
2021/07/10 09:21:00;;;;;;;;;;;22.10;76.10;;;;;;5070866;28;20404;-65
2021/07/10 09:23:29;;;;;;;;;;;22.10;74.30;;;;;;5072546;28;19920;-65
2021/07/10 09:26:11;;;;;;;;;;;21.80;73.50;;;;;;5064049;28;20045;-65
2021/07/10 09:28:36;;;;;;;;;;;21.50;73.40;;;;;;5052176;28;19920;-65
2021/07/10 09:31:04;;;;;;;;;;;21.40;73.80;;;;;;5068600;28;20337;-65
2021/07/10 09:33:30;;;;;;;;;;;21.40;73.90;;;;;;5071863;28;20288;-65
2021/07/10 09:35:59;;;;;;;;;;;21.50;74.70;;;;;;5072314;28;20319;-65
2021/07/10 09:38:35;;;;;;;;;;;21.90;75.20;;;;;;5072131;28;19923;-65
2021/07/10 09:41:02;;;;;;;;;;;22.80;76.20;;;;;;5070682;28;20046;-65
2021/07/10 09:43:30;;;;;;;;;;;24.10;75.80;;;;;;5072107;28;19973;-65
2021/07/10 09:45:56;;;;;;;;;;;25.60;75.90;;;;;;5069716;28;19932;-65
2021/07/10 09:48:25;;;;;;;;;;;27.40;73.10;;;;;;5069989;28;19964;-65
2021/07/10 09:50:51;;;;;;;;;;;30.20;71.60;;;;;;5065521;28;19924;-65
2021/07/10 09:53:23;;;;;;;;;;;33.60;68.90;;;;;;5071203;28;19917;-65
2021/07/10 09:55:49;;;;;;;;;;;36.40;63.20;;;;;;5070558;28;20021;-66
2021/07/10 09:58:30;;;;;;;;;;;38.50;55.50;;;;;;5071206;28;20450;-66
2021/07/10 10:00:56;;;;;;;;;;;39.00;48.90;;;;;;5071352;28;19920;-65
2021/07/10 10:03:31;;;;;;;;;;;38.50;46.50;;;;;;5071632;28;19924;-65
2021/07/10 10:05:57;;;;;;;;;;;39.00;44.10;;;;;;5071799;28;20019;-65
2021/07/10 10:08:31;;;;;;;;;;;37.10;40.10;;;;;;5086420;28;19951;-65
2021/07/10 10:10:57;;;;;;;;;;;35.20;41.00;;;;;;5090631;28;20402;-65
2021/07/10 10:13:22;;;;;;;;;;;33.90;42.40;;;;;;5074714;28;19916;-66
2021/07/10 10:15:52;;;;;;;;;;;34.30;45.00;;;;;;5070474;28;20281;-65
2021/07/10 10:18:17;;;;;;;;;;;35.80;44.90;;;;;;5071297;28;20265;-66
2021/07/10 10:20:43;;;;;;;;;;;37.30;41.90;;;;;;5070892;28;19916;-65
2021/07/10 10:23:11;;;;;;;;;;;37.70;39.60;;;;;;5070230;28;20488;-66
2021/07/10 10:25:37;;;;;;;;;;;36.70;37.40;;;;;;5070198;28;19924;-66
2021/07/10 10:28:04;;;;;;;;;;;36.80;40.40;;;;;;5069313;28;20384;-65
2021/07/10 10:30:29;;;;;;;;;;;38.90;40.90;;;;;;5071608;28;19916;-65
2021/07/10 10:32:55;;;;;;;;;;;40.40;38.10;;;;;;5071546;28;19974;-66
2021/07/10 10:35:21;;;;;;;;;;;40.50;35.20;;;;;;5071188;28;19923;-65
2021/07/10 10:37:46;;;;;;;;;;;39.60;34.10;;;;;;5074367;28;20240;-65
2021/07/10 10:40:14;;;;;;;;;;;40.30;35.70;;;;;;5091666;28;20393;-65
2021/07/10 10:42:39;;;;;;;;;;;42.00;35.70;;;;;;5090966;28;19922;-65
2021/07/10 10:45:06;;;;;;;;;;;41.60;32.50;;;;;;5056116;28;20369;-66
2021/07/10 10:47:57;;;;;;;;;;;42.30;33.40;;;;;;5070844;28;19922;-66
2021/07/10 10:50:25;;;;;;;;;;;43.40;32.60;;;;;;5065841;28;19941;-66
2021/07/10 10:52:53;;;;;;;;;;;42.00;30.00;;;;;;5071346;28;20368;-65
2021/07/10 10:55:33;;;;;;;;;;;40.00;29.60;;;;;;5061343;28;19927;-64
2021/07/10 10:58:00;;;;;;;;;;;37.10;30.00;;;;;;5078578;22;19933;-62
2021/07/10 11:00:39;;;;;;;;;;;34.40;32.10;;;;;;5031080;28;19917;-63
2021/07/10 11:03:08;;;;;;;;;;;33.20;34.00;;;;;;5031135;28;19926;-64
2021/07/10 11:05:34;;;;;;;;;;;32.80;36.60;;;;;;5013166;28;19928;-65
2021/07/10 11:08:21;;;;;;;;;;;35.20;38.10;;;;;;5030402;28;19925;-65
2021/07/10 11:10:49;;;;;;;;;;;38.30;37.20;;;;;;4991712;28;20001;-64
2021/07/10 11:13:27;;;;;;;;;;;39.10;32.20;;;;;;4993034;28;19921;-62
2021/07/10 11:16:04;;;;;;;;;;;37.30;30.00;;;;;;4974140;28;19925;-64
2021/07/10 11:18:46;;;;;;;;;;;35.00;32.20;;;;;;4989661;28;19930;-64
2021/07/10 11:21:12;;;;;;;;;;;34.30;33.30;;;;;;4991227;28;19965;-65
2021/07/10 11:23:38;;;;;;;;;;;33.90;34.30;;;;;;4991986;28;19918;-63
2021/07/10 11:26:15;;;;;;;;;;;34.60;35.10;;;;;;4992160;28;19926;-63
2021/07/10 11:28:46;;;;;;;;;;;34.50;33.20;;;;;;4990850;28;19918;-66
2021/07/10 11:31:17;;;;;;;;;;;34.10;33.30;;;;;;4991690;28;19922;-65
2021/07/10 11:34:01;;;;;;;;;;;33.70;33.60;;;;;;4994153;28;19972;-64
2021/07/10 11:36:41;;;;;;;;;;;33.40;34.10;;;;;;4977957;28;19922;-63
2021/07/10 11:39:26;;;;;;;;;;;32.90;35.10;;;;;;4975066;28;19921;-64
2021/07/10 11:41:56;;;;;;;;;;;32.20;35.00;;;;;;4997542;28;19923;-63
2021/07/10 11:44:22;;;;;;;;;;;31.60;35.40;;;;;;4996373;28;19921;-65
2021/07/10 11:46:58;;;;;;;;;;;31.00;35.30;;;;;;5013552;28;20316;-64
2021/07/10 11:49:36;;;;;;;;;;;30.60;36.20;;;;;;5013351;28;19925;-63
2021/07/10 11:52:02;;;;;;;;;;;30.00;36.10;;;;;;4995997;28;19917;-64
2021/07/10 11:54:27;;;;;;;;;;;29.10;36.80;;;;;;4994924;28;19925;-62
2021/07/10 11:56:53;;;;;;;;;;;28.60;38.10;;;;;;4985251;28;19969;-62
2021/07/10 11:59:18;;;;;;;;;;;28.10;38.10;;;;;;5010720;28;19929;-64
2021/07/10 12:01:44;;;;;;;;;;;27.40;39.00;;;;;;5003385;28;20337;-64
2021/07/10 12:04:10;;;;;;;;;;;27.00;39.70;;;;;;4989233;28;19921;-63
2021/07/10 12:06:35;;;;;;;;;;;26.60;40.60;;;;;;5005729;28;19925;-63
2021/07/10 12:09:02;;;;;;;;;;;26.30;41.10;;;;;;5012911;28;20289;-64
2021/07/10 12:11:27;;;;;;;;;;;26.20;42.00;;;;;;5005612;28;19926;-63
2021/07/10 12:13:53;;;;;;;;;;;26.30;42.20;;;;;;5013839;28;19991;-64
2021/07/10 12:16:18;;;;;;;;;;;26.50;42.70;;;;;;5009536;28;19918;-63
2021/07/10 12:18:50;;;;;;;;;;;26.70;42.80;;;;;;5012445;28;19918;-64
2021/07/10 12:21:16;;;;;;;;;;;27.00;43.00;;;;;;5013309;28;19944;-64
2021/07/10 12:23:43;;;;;;;;;;;27.40;42.80;;;;;;4995955;28;19913;-64
2021/07/10 12:26:08;;;;;;;;;;;27.30;41.80;;;;;;5006837;28;19926;-64
2021/07/10 12:28:37;;;;;;;;;;;27.10;42.00;;;;;;5008293;28;19928;-63
2021/07/10 12:31:16;;;;;;;;;;;27.00;42.70;;;;;;5009545;28;19922;-63
2021/07/10 12:33:45;;;;;;;;;;;27.10;42.90;;;;;;4999875;28;19918;-64
2021/07/10 12:36:40;;;;;;;;;;;27.30;42.70;;;;;;4993982;28;19918;-63
2021/07/10 12:39:12;;;;;;;;;;;27.20;42.20;;;;;;4976388;28;19921;-64
2021/07/10 12:41:44;;;;;;;;;;;27.10;42.40;;;;;;4994090;28;19929;-63
2021/07/10 12:44:12;;;;;;;;;;;26.80;42.30;;;;;;4994094;28;19957;-63
2021/07/10 12:46:56;;;;;;;;;;;26.50;42.10;;;;;;4976539;28;19926;-62
2021/07/10 12:49:23;;;;;;;;;;;26.20;42.70;;;;;;4994627;28;20013;-63
2021/07/10 12:51:49;;;;;;;;;;;26.20;43.60;;;;;;4994143;28;19925;-64
2021/07/10 12:54:31;;;;;;;;;;;26.20;43.60;;;;;;4976289;28;19914;-63
2021/07/10 12:56:58;;;;;;;;;;;26.20;43.60;;;;;;4993615;28;19925;-62
2021/07/10 12:59:25;;;;;;;;;;;26.20;43.30;;;;;;4993311;28;19933;-62
2021/07/10 13:01:51;;;;;;;;;;;26.10;43.20;;;;;;4997355;28;19929;-63
2021/07/10 13:04:19;;;;;;;;;;;25.90;43.40;;;;;;5008510;28;20083;-62
2021/07/10 13:06:45;;;;;;;;;;;25.90;44.00;;;;;;5009167;28;19925;-63
2021/07/10 13:09:12;;;;;;;;;;;25.90;44.40;;;;;;5008234;28;20436;-63
2021/07/10 13:11:51;;;;;;;;;;;26.00;44.50;;;;;;5012654;28;19921;-64
2021/07/10 13:14:20;;;;;;;;;;;26.00;44.30;;;;;;5013142;28;19917;-66
2021/07/10 13:16:46;;;;;;;;;;;25.90;44.30;;;;;;5006988;28;19921;-65
2021/07/10 13:19:12;;;;;;;;;;;25.70;44.40;;;;;;5004901;28;19925;-65
2021/07/10 13:21:37;;;;;;;;;;;25.50;45.10;;;;;;5013163;28;20544;-64
2021/07/10 13:24:06;;;;;;;;;;;25.60;45.60;;;;;;5004618;28;20380;-64
2021/07/10 13:26:42;;;;;;;;;;;25.70;45.70;;;;;;4984854;28;19945;-66
2021/07/10 13:29:18;;;;;;;;;;;25.90;46.10;;;;;;5012793;28;19921;-65
2021/07/10 13:31:47;;;;;;;;;;;25.90;45.80;;;;;;5011723;28;19992;-65
2021/07/10 13:34:17;;;;;;;;;;;25.90;45.50;;;;;;5011072;28;20404;-66
2021/07/10 13:36:46;;;;;;;;;;;25.80;45.90;;;;;;5012613;28;19918;-67
2021/07/10 13:39:17;;;;;;;;;;;25.60;46.10;;;;;;5012315;28;19917;-65
2021/07/10 13:41:55;;;;;;;;;;;25.60;46.30;;;;;;4995382;28;19918;-65
2021/07/10 13:44:21;;;;;;;;;;;25.50;46.30;;;;;;4992843;28;20319;-65
2021/07/10 13:46:52;;;;;;;;;;;25.50;46.80;;;;;;4992610;28;20068;-65
2021/07/10 13:49:38;;;;;;;;;;;25.60;46.70;;;;;;4992979;28;19922;-66
2021/07/10 13:52:04;;;;;;;;;;;25.60;47.10;;;;;;4974701;28;19918;-65
2021/07/10 13:54:32;;;;;;;;;;;25.70;47.20;;;;;;4992464;28;19918;-65
2021/07/10 13:57:07;;;;;;;;;;;25.70;47.00;;;;;;4999133;28;19922;-65
2021/07/10 13:59:33;;;;;;;;;;;25.80;47.10;;;;;;4994669;28;20372;-65
2021/07/10 14:01:58;;;;;;;;;;;25.70;47.20;;;;;;5011845;28;19968;-65
2021/07/10 14:04:24;;;;;;;;;;;25.70;47.50;;;;;;5012428;28;19956;-65
2021/07/10 14:06:49;;;;;;;;;;;25.70;47.20;;;;;;5011923;28;19953;-65
2021/07/10 14:09:16;;;;;;;;;;;25.60;47.30;;;;;;4993934;28;19972;-66
2021/07/10 14:11:42;;;;;;;;;;;25.50;47.40;;;;;;5012248;28;19975;-64
2021/07/10 14:14:07;;;;;;;;;;;25.50;47.30;;;;;;4982334;28;19922;-66
2021/07/10 14:16:33;;;;;;;;;;;25.40;47.70;;;;;;4992347;28;19937;-65